Time;durP1;ratioP1;P1;durP2;ratioP2;P2;SDS_P1;SDS_P2;PMS_P1;PMS_P2;Temp;Humidity;BMP_temperature;BMP_pressure;BME280_temperature;BME280_humidity;BME280_pressure;Samples;Min_cycle;Max_cycle;Signal;HPM_P1;HPM_P2
2021/01/19 00:02:11;;;;;;;7.60;4.23;;;0.40;99.90;;;;;;5012486;28;20452;-89
2021/01/19 00:04:38;;;;;;;7.60;3.47;;;;;;;;;;5013012;28;20865;-87
2021/01/19 00:07:05;;;;;;;3.03;2.27;;;0.40;99.90;;;;;;5014556;28;20448;-88
2021/01/19 00:09:31;;;;;;;3.53;2.40;;;0.30;99.90;;;;;;5016002;28;20455;-87
2021/01/19 00:11:58;;;;;;;6.33;3.43;;;;;;;;;;5015982;28;20455;-87
2021/01/19 00:14:24;;;;;;;3.87;2.73;;;0.30;99.90;;;;;;5030646;28;20464;-88
2021/01/19 00:16:50;;;;;;;2.43;1.40;;;;;;;;;;5035333;28;20451;-87
2021/01/19 00:19:17;;;;;;;4.87;1.43;;;0.50;99.90;;;;;;5035499;28;20626;-87
2021/01/19 00:21:43;;;;;;;5.40;2.03;;;0.30;99.90;;;;;;5030857;28;20479;-88
2021/01/19 00:24:10;;;;;;;6.73;3.80;;;0.30;99.90;;;;;;5035478;28;20475;-89
2021/01/19 00:26:38;;;;;;;10.07;4.40;;;0.40;99.90;;;;;;5035381;28;20478;-87
2021/01/19 00:29:05;;;;;;;4.00;2.17;;;0.50;99.90;;;;;;5035703;28;20448;-90
2021/01/19 00:31:31;;;;;;;3.53;2.07;;;0.20;99.90;;;;;;5035815;28;20462;-90
2021/01/19 00:33:57;;;;;;;2.00;1.10;;;0.60;99.90;;;;;;5035488;28;20513;-90
2021/01/19 00:36:23;;;;;;;1.37;0.87;;;0.00;99.90;;;;;;5033956;28;20682;-89
2021/01/19 00:38:50;;;;;;;4.63;2.23;;;0.60;99.90;;;;;;5038731;28;20537;-91
2021/01/19 00:41:17;;;;;;;1.27;1.03;;;0.10;99.90;;;;;;5035779;28;20462;-88
2021/01/19 00:43:43;;;;;;;6.43;2.70;;;;;;;;;;5035517;28;20448;-87
2021/01/19 00:46:09;;;;;;;3.47;2.70;;;0.30;99.90;;;;;;5035257;28;20444;-89
2021/01/19 00:48:36;;;;;;;2.90;1.70;;;0.40;99.90;;;;;;5035301;28;20509;-89
2021/01/19 00:51:02;;;;;;;3.90;3.00;;;0.40;99.90;;;;;;5035341;28;20443;-88
2021/01/19 00:53:29;;;;;;;12.27;4.73;;;0.10;99.90;;;;;;5035371;28;20439;-90
2021/01/19 00:55:55;;;;;;;4.60;2.87;;;0.20;99.90;;;;;;5035673;28;20470;-91
2021/01/19 00:58:22;;;;;;;3.83;2.40;;;0.30;99.90;;;;;;5034824;28;20494;-93
2021/01/19 01:00:48;;;;;;;2.50;2.30;;;0.20;99.90;;;;;;5040186;28;20460;-93
2021/01/19 01:03:15;;;;;;;5.20;2.10;;;;;;;;;;5039412;28;20425;-94
2021/01/19 01:05:41;;;;;;;3.00;2.20;;;0.20;99.90;;;;;;5046869;28;20439;-92
2021/01/19 01:08:07;;;;;;;7.47;3.30;;;0.50;99.90;;;;;;5042566;28;20451;-95
2021/01/19 01:10:34;;;;;;;3.37;2.00;;;0.10;99.90;;;;;;5038681;28;20444;-93
2021/01/19 01:13:00;;;;;;;4.80;2.90;;;0.00;99.90;;;;;;5041224;28;20451;-92
2021/01/19 01:15:32;;;;;;;3.07;2.23;;;0.20;99.90;;;;;;5036932;28;20497;-88
2021/01/19 01:17:58;;;;;;;6.63;3.17;;;0.30;99.90;;;;;;5035559;28;20791;-93
2021/01/19 01:20:25;;;;;;;6.30;3.50;;;0.00;99.90;;;;;;5035333;28;20942;-87
2021/01/19 01:22:52;;;;;;;4.97;3.07;;;0.20;99.90;;;;;;5034389;28;21005;-88
2021/01/19 01:25:19;;;;;;;3.47;2.20;;;-0.70;99.90;;;;;;5035576;28;20811;-88
2021/01/19 01:27:46;;;;;;;7.03;1.40;;;0.20;99.90;;;;;;5035561;28;20500;-91
2021/01/19 01:30:15;;;;;;;5.17;3.00;;;0.30;99.90;;;;;;5035336;28;20966;-91
2021/01/19 01:32:43;;;;;;;3.40;2.20;;;0.10;99.90;;;;;;5035570;28;20443;-91
2021/01/19 01:35:11;;;;;;;1.53;1.03;;;0.00;99.90;;;;;;5034940;28;20475;-87
2021/01/19 01:37:44;;;;;;;2.73;1.70;;;0.10;99.90;;;;;;5032637;28;20451;-90
2021/01/19 01:40:11;;;;;;;1.90;1.13;;;0.00;99.90;;;;;;5035049;28;20448;-88
2021/01/19 01:42:37;;;;;;;1.47;1.03;;;0.30;99.90;;;;;;5034993;28;20470;-90
2021/01/19 01:45:05;;;;;;;1.37;1.27;;;0.30;99.90;;;;;;5034621;28;20944;-87
2021/01/19 01:47:32;;;;;;;1.30;1.10;;;;;;;;;;5034501;28;20443;-88
2021/01/19 01:49:59;;;;;;;0.60;0.50;;;-0.30;99.90;;;;;;5034770;28;20973;-88
2021/01/19 01:52:29;;;;;;;1.37;0.93;;;0.20;99.90;;;;;;5033256;28;20501;-87
2021/01/19 01:54:56;;;;;;;2.07;1.50;;;0.00;99.90;;;;;;5036863;28;20453;-86
2021/01/19 01:57:23;;;;;;;1.80;1.03;;;;;;;;;;5040706;28;20502;-89
2021/01/19 01:59:50;;;;;;;1.97;1.63;;;0.20;99.90;;;;;;5034754;28;20562;-88
2021/01/19 02:02:17;;;;;;;9.57;2.37;;;;;;;;;;5033984;28;20819;-89
2021/01/19 02:04:43;;;;;;;4.00;2.00;;;0.20;99.90;;;;;;5034418;28;20466;-87
2021/01/19 02:07:20;;;;;;;4.87;1.30;;;0.10;99.90;;;;;;5039172;28;20460;-91
2021/01/19 02:09:54;;;;;;;2.43;1.10;;;0.10;99.90;;;;;;5036435;28;20461;-94
2021/01/19 02:12:27;;;;;;;5.53;2.50;;;0.20;99.90;;;;;;5034622;28;20457;-90
2021/01/19 02:15:01;;;;;;;5.50;1.73;;;0.30;99.90;;;;;;5034210;28;21001;-88
2021/01/19 02:17:38;;;;;;;1.23;1.10;;;0.30;99.90;;;;;;5034199;28;20452;-88
2021/01/19 02:20:47;;;;;;;7.30;1.40;;;0.30;99.90;;;;;;5033900;28;20573;-89
2021/01/19 02:23:35;;;;;;;4.17;1.87;;;-0.10;99.90;;;;;;5033062;28;20463;-88
2021/01/19 02:26:23;;;;;;;5.20;2.33;;;0.30;99.90;;;;;;5034134;28;20538;-87
2021/01/19 02:28:53;;;;;;;3.37;1.90;;;0.40;99.90;;;;;;5033490;28;20456;-92
2021/01/19 02:31:58;;;;;;;2.30;1.70;;;0.20;99.90;;;;;;5033735;28;20497;-92
2021/01/19 02:34:30;;;;;;;1.30;1.20;;;0.30;99.90;;;;;;5031948;28;20459;-90
2021/01/19 02:37:06;;;;;;;1.43;0.90;;;0.40;99.90;;;;;;5033984;28;20451;-89
2021/01/19 02:39:44;;;;;;;1.10;0.97;;;0.50;99.90;;;;;;5034490;28;20485;-89
2021/01/19 02:42:12;;;;;;;1.07;0.97;;;0.30;99.90;;;;;;5035972;28;20447;-92
2021/01/19 02:44:41;;;;;;;2.50;1.50;;;0.40;99.90;;;;;;5035914;28;20961;-89
2021/01/19 02:47:08;;;;;;;4.00;1.47;;;0.20;99.90;;;;;;5035889;28;20448;-92
2021/01/19 02:49:35;;;;;;;0.80;0.80;;;;;;;;;;5036264;28;20947;-91
2021/01/19 02:52:01;;;;;;;3.80;1.20;;;0.40;99.90;;;;;;5034742;28;20947;-89
2021/01/19 02:54:28;;;;;;;5.73;1.47;;;0.60;99.90;;;;;;5034950;28;20440;-91
2021/01/19 02:57:28;;;;;;;1.60;1.50;;;-0.30;99.90;;;;;;5035058;28;20489;-88
2021/01/19 03:00:07;;;;;;;2.20;1.53;;;0.60;99.90;;;;;;5030183;28;20569;-88
2021/01/19 03:02:36;;;;;;;1.47;1.30;;;0.60;99.90;;;;;;5034094;28;20937;-87
2021/01/19 03:05:05;;;;;;;2.63;1.67;;;0.70;99.90;;;;;;5034937;28;20453;-87
2021/01/19 03:07:34;;;;;;;1.00;0.90;;;1.10;99.90;;;;;;5034194;28;20451;-88
2021/01/19 03:10:02;;;;;;;1.43;1.20;;;0.80;99.90;;;;;;5034018;28;20459;-90
2021/01/19 03:12:29;;;;;;;1.40;1.27;;;;;;;;;;5033903;28;20451;-87
2021/01/19 03:14:56;;;;;;;1.97;1.40;;;0.30;99.90;;;;;;5034284;28;20447;-89
2021/01/19 03:17:23;;;;;;;1.83;1.40;;;;;;;;;;5033791;28;20453;-89
2021/01/19 03:19:50;;;;;;;4.13;1.80;;;0.50;99.90;;;;;;5034201;28;20502;-91
2021/01/19 03:22:16;;;;;;;2.20;1.63;;;;;;;;;;5033305;28;20525;-89
2021/01/19 03:24:43;;;;;;;1.63;1.03;;;0.40;99.90;;;;;;5033544;28;20801;-89
2021/01/19 03:27:10;;;;;;;4.40;2.30;;;0.50;99.90;;;;;;5033645;28;20612;-89
2021/01/19 03:29:36;;;;;;;2.40;1.87;;;;;;;;;;5033660;28;20454;-92
2021/01/19 03:32:03;;;;;;;2.63;2.30;;;0.30;99.90;;;;;;5033372;28;20451;-89
2021/01/19 03:34:29;;;;;;;2.10;1.73;;;0.60;99.90;;;;;;5036354;28;20454;-89
2021/01/19 03:36:56;;;;;;;1.67;1.30;;;0.50;99.90;;;;;;5035213;28;20455;-87
2021/01/19 03:39:23;;;;;;;2.37;1.70;;;1.30;99.90;;;;;;5033847;28;20495;-90
2021/01/19 03:41:49;;;;;;;1.77;1.23;;;0.70;99.90;;;;;;5037631;28;20451;-90
2021/01/19 03:44:16;;;;;;;1.63;0.80;;;;;;;;;;5037482;28;20535;-89
2021/01/19 03:46:42;;;;;;;3.40;2.30;;;;;;;;;;5037457;28;20452;-87
2021/01/19 03:49:09;;;;;;;4.00;2.20;;;0.20;99.90;;;;;;5037284;28;20456;-92
2021/01/19 03:51:35;;;;;;;3.70;2.17;;;;;;;;;;5036736;28;20452;-89
2021/01/19 03:54:03;;;;;;;3.77;2.37;;;;;;;;;;5037189;28;20454;-91
2021/01/19 03:56:29;;;;;;;4.00;2.47;;;0.60;99.90;;;;;;5037346;28;20455;-90
2021/01/19 03:58:55;;;;;;;3.60;2.50;;;0.60;99.90;;;;;;5037255;28;20484;-89
2021/01/19 04:01:22;;;;;;;5.63;2.40;;;0.30;99.90;;;;;;5037214;28;20509;-89
2021/01/19 04:03:48;;;;;;;3.40;2.40;;;0.50;99.90;;;;;;5037219;28;20945;-91
2021/01/19 04:06:15;;;;;;;2.50;1.47;;;0.50;99.90;;;;;;5036095;28;20525;-89
2021/01/19 04:08:42;;;;;;;2.50;2.30;;;;;;;;;;5037194;28;20455;-88
2021/01/19 04:11:09;;;;;;;1.37;1.27;;;1.20;99.90;;;;;;5039201;28;20459;-89
2021/01/19 04:13:36;;;;;;;1.83;1.40;;;;;;;;;;5040987;28;20436;-93
2021/01/19 04:16:03;;;;;;;3.17;2.00;;;0.50;99.90;;;;;;5037284;28;20452;-91
2021/01/19 04:18:29;;;;;;;2.93;0.70;;;;;;;;;;5036891;28;20487;-89
2021/01/19 04:20:55;;;;;;;4.90;2.60;;;0.30;99.90;;;;;;5037161;28;20449;-89
2021/01/19 04:23:22;;;;;;;3.30;1.90;;;0.30;99.90;;;;;;5036170;28;20475;-87
2021/01/19 04:25:49;;;;;;;3.63;2.70;;;0.30;99.90;;;;;;5036795;28;20455;-88
2021/01/19 04:28:17;;;;;;;3.67;2.40;;;0.20;99.90;;;;;;5036958;28;20451;-89
2021/01/19 04:30:44;;;;;;;2.43;0.97;;;0.50;99.90;;;;;;5036758;28;20455;-88
2021/01/19 04:33:11;;;;;;;5.73;1.60;;;0.30;99.90;;;;;;5036467;28;20818;-90
2021/01/19 04:35:38;;;;;;;2.83;1.33;;;0.10;99.90;;;;;;5036184;28;20447;-88
2021/01/19 04:38:05;;;;;;;9.43;2.50;;;;;;;;;;5035326;28;20455;-88
2021/01/19 04:40:31;;;;;;;3.33;2.10;;;-0.10;99.90;;;;;;5036718;28;20939;-87
2021/01/19 04:42:58;;;;;;;4.23;2.10;;;0.30;99.90;;;;;;5036531;28;20447;-88
2021/01/19 04:45:25;;;;;;;3.80;2.07;;;0.20;99.90;;;;;;5036151;28;20447;-86
2021/01/19 04:47:52;;;;;;;2.10;1.80;;;;;;;;;;5036078;28;20457;-90
2021/01/19 04:50:18;;;;;;;8.07;3.37;;;;;;;;;;5036162;28;20451;-88
2021/01/19 04:52:46;;;;;;;4.67;2.70;;;-0.10;99.90;;;;;;5021764;28;20551;-87
2021/01/19 04:55:17;;;;;;;1.10;0.87;;;0.20;99.90;;;;;;5015923;28;20535;-90
2021/01/19 04:57:43;;;;;;;6.77;3.20;;;0.00;99.90;;;;;;5015820;28;20480;-88
2021/01/19 05:00:12;;;;;;;2.97;1.87;;;0.00;99.90;;;;;;5015965;28;20488;-88
2021/01/19 05:03:19;;;;;;;5.57;2.10;;;0.10;99.90;;;;;;5025027;28;20490;-86
2021/01/19 05:06:13;;;;;;;4.03;2.30;;;0.20;99.90;;;;;;5024816;28;20456;-86
2021/01/19 05:08:56;;;;;;;3.03;1.67;;;-0.10;99.90;;;;;;5025525;28;20453;-87
2021/01/19 05:11:25;;;;;;;9.00;2.20;;;-0.30;99.90;;;;;;5027198;28;20443;-88
2021/01/19 05:13:54;;;;;;;4.83;2.30;;;-0.20;99.90;;;;;;5024356;28;20440;-91
2021/01/19 05:16:31;;;;;;;4.30;2.90;;;0.00;99.90;;;;;;5020723;28;20551;-85
2021/01/19 05:19:00;;;;;;;6.70;1.90;;;-0.10;99.90;;;;;;5031140;28;20491;-90
2021/01/19 05:21:26;;;;;;;4.33;2.20;;;;;;;;;;5031867;28;21347;-86
2021/01/19 05:23:55;;;;;;;3.50;2.53;;;0.00;99.90;;;;;;5019742;28;20458;-91
2021/01/19 05:26:21;;;;;;;7.53;1.90;;;-0.10;99.90;;;;;;5026675;28;20810;-86
2021/01/19 05:28:49;;;;;;;3.37;2.20;;;0.50;99.90;;;;;;5026868;28;20450;-87
2021/01/19 05:31:25;;;;;;;1.30;1.07;;;-0.10;99.90;;;;;;5024434;28;20940;-87
2021/01/19 05:34:13;;;;;;;2.57;2.17;;;0.00;99.90;;;;;;5030328;28;20848;-89
2021/01/19 05:36:42;;;;;;;2.87;2.30;;;0.00;99.90;;;;;;5024765;28;20459;-90
2021/01/19 05:39:11;;;;;;;4.17;2.17;;;-0.10;99.90;;;;;;5029124;28;20727;-90
2021/01/19 05:41:40;;;;;;;3.20;2.33;;;-0.20;99.90;;;;;;5016119;28;20457;-91
2021/01/19 05:44:18;;;;;;;1.67;1.03;;;0.00;99.90;;;;;;5026452;28;20513;-91
2021/01/19 05:46:49;;;;;;;1.37;1.00;;;-0.20;99.90;;;;;;5030170;28;20828;-87
2021/01/19 05:49:29;;;;;;;2.13;1.17;;;-0.10;99.90;;;;;;5026395;28;20456;-86
2021/01/19 05:51:59;;;;;;;3.40;1.87;;;-0.20;99.90;;;;;;5024637;28;20439;-91
2021/01/19 05:54:28;;;;;;;6.90;3.43;;;-0.20;99.90;;;;;;5017563;28;20455;-90
2021/01/19 05:57:03;;;;;;;4.63;1.50;;;-0.20;99.90;;;;;;5030656;28;20474;-89
2021/01/19 05:59:32;;;;;;;4.27;2.10;;;-0.10;99.90;;;;;;5027457;28;20486;-89
2021/01/19 06:02:02;;;;;;;4.20;2.60;;;-0.30;99.90;;;;;;5023917;28;20441;-87
2021/01/19 06:04:38;;;;;;;4.17;3.10;;;-0.30;99.90;;;;;;5018301;28;20470;-90
2021/01/19 06:07:05;;;;;;;6.20;5.13;;;-0.20;99.90;;;;;;5030781;28;20508;-90
2021/01/19 06:09:32;;;;;;;7.13;2.63;;;-0.40;99.90;;;;;;5023372;28;20961;-90
2021/01/19 06:11:59;;;;;;;4.63;3.40;;;;;;;;;;5026770;28;20456;-88
2021/01/19 06:14:27;;;;;;;6.60;4.80;;;-0.20;99.90;;;;;;5014916;28;20451;-88
2021/01/19 06:17:14;;;;;;;6.83;3.53;;;-0.40;99.90;;;;;;5014867;28;20455;-91
2021/01/19 06:19:43;;;;;;;5.80;2.67;;;-0.10;99.90;;;;;;5014449;28;20490;-86
2021/01/19 06:22:13;;;;;;;1.67;1.40;;;-0.30;99.90;;;;;;5014127;28;20476;-86
2021/01/19 06:24:41;;;;;;;7.23;2.77;;;-0.70;99.90;;;;;;5016002;28;20452;-90
2021/01/19 06:27:09;;;;;;;5.37;2.23;;;-0.20;99.90;;;;;;5021891;28;20452;-89
2021/01/19 06:29:36;;;;;;;3.70;1.87;;;-0.20;99.90;;;;;;5023384;28;20852;-88
2021/01/19 06:32:08;;;;;;;2.10;1.90;;;-0.50;99.90;;;;;;5022165;28;20502;-85
2021/01/19 06:34:38;;;;;;;5.63;2.43;;;-0.40;99.90;;;;;;5029225;28;20504;-92
2021/01/19 06:37:06;;;;;;;1.13;0.60;;;-0.30;99.90;;;;;;5017689;28;20841;-90
2021/01/19 06:39:39;;;;;;;3.43;1.60;;;-0.50;99.90;;;;;;5026173;28;20849;-90
2021/01/19 06:42:09;;;;;;;1.50;1.30;;;-0.60;99.90;;;;;;5016901;28;20447;-88
2021/01/19 06:44:42;;;;;;;2.90;2.03;;;-0.40;99.90;;;;;;5022536;28;20452;-89
2021/01/19 06:47:08;;;;;;;1.80;1.43;;;-0.50;99.90;;;;;;5022022;28;20448;-90
2021/01/19 06:49:37;;;;;;;3.37;2.00;;;-0.60;99.90;;;;;;5017899;28;20456;-89
2021/01/19 06:52:10;;;;;;;3.77;2.43;;;-0.60;99.90;;;;;;5014583;28;20471;-85
2021/01/19 06:55:11;;;;;;;3.93;2.10;;;-0.50;99.90;;;;;;4980457;28;20486;-87
2021/01/19 06:58:04;;;;;;;5.23;2.67;;;-0.60;99.90;;;;;;5014447;28;20485;-87
2021/01/19 07:00:41;;;;;;;2.73;2.40;;;-0.60;99.90;;;;;;5013475;28;20497;-86
2021/01/19 07:03:24;;;;;;;6.00;3.27;;;-0.70;99.90;;;;;;4978950;28;20505;-87
2021/01/19 07:05:53;;;;;;;4.13;2.63;;;-0.70;99.90;;;;;;5013321;28;20457;-87
2021/01/19 07:09:05;;;;;;;4.40;2.33;;;-0.80;99.90;;;;;;5012191;28;20471;-87
2021/01/19 07:11:58;;;;;;;7.90;2.97;;;-0.80;99.90;;;;;;5032864;28;20449;-88
2021/01/19 07:14:38;;;;;;;8.20;2.87;;;-0.60;99.90;;;;;;5035329;28;20447;-88
2021/01/19 07:17:07;;;;;;;5.17;2.17;;;-0.40;99.90;;;;;;5037144;28;20465;-84
2021/01/19 07:19:43;;;;;;;4.00;2.60;;;0.10;99.90;;;;;;5036920;28;20580;-88
2021/01/19 07:22:13;;;;;;;5.10;2.60;;;-0.70;99.90;;;;;;5035969;28;20474;-87
2021/01/19 07:24:42;;;;;;;4.50;2.60;;;-1.00;99.90;;;;;;5029354;28;20444;-85
2021/01/19 07:27:10;;;;;;;4.73;3.30;;;-0.70;99.90;;;;;;5027384;28;20443;-86
2021/01/19 07:29:37;;;;;;;10.20;3.47;;;-0.90;99.90;;;;;;5027595;28;20446;-86
2021/01/19 07:32:09;;;;;;;5.47;3.20;;;-0.80;99.90;;;;;;5025828;28;20849;-86
2021/01/19 07:34:37;;;;;;;6.97;3.70;;;-0.70;99.90;;;;;;5024812;28;20459;-83
2021/01/19 07:37:04;;;;;;;8.30;3.40;;;-0.70;99.90;;;;;;5022375;28;20445;-87
2021/01/19 07:39:32;;;;;;;9.10;4.00;;;-0.70;99.90;;;;;;5016809;28;20503;-85
2021/01/19 07:42:11;;;;;;;5.80;3.20;;;-0.80;99.90;;;;;;5016751;28;20499;-84
2021/01/19 07:44:38;;;;;;;6.30;3.33;;;;;;;;;;5016591;28;20805;-85
2021/01/19 07:47:15;;;;;;;7.10;3.47;;;-0.40;99.90;;;;;;5016760;28;20448;-89
2021/01/19 07:49:41;;;;;;;5.67;3.20;;;-0.40;99.90;;;;;;5016675;28;20452;-88
2021/01/19 07:52:12;;;;;;;3.47;2.60;;;-0.50;99.90;;;;;;5015537;28;21400;-87
2021/01/19 07:54:39;;;;;;;3.40;2.73;;;-0.50;99.90;;;;;;5016422;28;20440;-88
2021/01/19 07:57:16;;;;;;;7.83;3.63;;;-0.40;99.90;;;;;;5016130;28;20586;-88
2021/01/19 07:59:44;;;;;;;3.37;2.60;;;-0.60;99.90;;;;;;5017946;28;20506;-91
2021/01/19 08:02:21;;;;;;;5.87;3.30;;;-0.20;99.90;;;;;;5016720;28;20452;-90
2021/01/19 08:04:58;;;;;;;1.53;1.30;;;-0.20;99.90;;;;;;5014090;28;20451;-86
2021/01/19 08:07:24;;;;;;;6.20;1.90;;;-0.10;99.90;;;;;;5015164;28;20444;-90
2021/01/19 08:09:50;;;;;;;5.90;2.90;;;;;;;;;;5015927;28;20440;-87
2021/01/19 08:12:17;;;;;;;4.33;2.40;;;0.20;99.90;;;;;;5016258;28;20943;-89
2021/01/19 08:14:45;;;;;;;3.63;2.67;;;0.40;99.90;;;;;;5016113;28;20448;-85
2021/01/19 08:17:12;;;;;;;5.17;2.70;;;0.50;99.90;;;;;;5016117;28;20452;-87
2021/01/19 08:19:40;;;;;;;2.50;1.73;;;0.40;99.90;;;;;;5016045;28;20526;-86
2021/01/19 08:22:06;;;;;;;3.87;3.13;;;0.60;99.90;;;;;;5014747;28;20476;-86
2021/01/19 08:24:33;;;;;;;0.87;0.83;;;0.80;99.90;;;;;;5016182;28;20456;-88
2021/01/19 08:27:00;;;;;;;5.97;3.60;;;;;;;;;;5022090;28;20455;-86
2021/01/19 08:29:27;;;;;;;4.97;3.20;;;1.10;99.90;;;;;;5036344;28;20892;-87
2021/01/19 08:31:55;;;;;;;6.87;3.30;;;1.40;99.90;;;;;;5027671;28;20963;-86
2021/01/19 08:34:23;;;;;;;3.03;1.27;;;1.50;99.90;;;;;;5018186;28;20498;-87
2021/01/19 08:36:50;;;;;;;6.80;4.23;;;;;;;;;;5024693;28;20448;-87
2021/01/19 08:39:17;;;;;;;4.80;2.87;;;2.40;99.90;;;;;;5036665;28;20491;-86
2021/01/19 08:41:45;;;;;;;3.93;2.23;;;1.50;99.90;;;;;;5023939;28;20452;-87
2021/01/19 08:44:12;;;;;;;5.40;2.80;;;;;;;;;;5025619;28;20447;-87
2021/01/19 08:46:39;;;;;;;4.40;2.60;;;1.40;99.90;;;;;;5035243;28;20452;-87
2021/01/19 08:49:07;;;;;;;2.60;1.73;;;1.20;99.90;;;;;;5035336;28;20459;-90
2021/01/19 08:51:34;;;;;;;7.17;3.40;;;1.20;99.90;;;;;;5033879;28;20869;-85
2021/01/19 08:54:01;;;;;;;8.13;2.80;;;1.30;99.90;;;;;;5035035;28;20447;-88
2021/01/19 08:56:28;;;;;;;2.67;1.50;;;1.20;99.90;;;;;;5034790;28;20822;-86
2021/01/19 08:58:55;;;;;;;4.67;2.83;;;1.10;99.90;;;;;;5034885;28;20840;-88
2021/01/19 09:01:22;;;;;;;4.80;2.80;;;;;;;;;;5035505;28;20538;-87
2021/01/19 09:03:57;;;;;;;4.17;2.37;;;1.10;99.90;;;;;;5033244;28;20862;-85
2021/01/19 09:06:24;;;;;;;5.50;2.17;;;1.10;99.90;;;;;;5031816;28;20521;-83
2021/01/19 09:08:56;;;;;;;2.03;1.53;;;1.50;99.90;;;;;;5034715;28;20467;-84
2021/01/19 09:11:27;;;;;;;8.67;3.30;;;0.80;99.90;;;;;;5034674;28;20951;-83
2021/01/19 09:14:01;;;;;;;4.20;2.80;;;1.10;99.90;;;;;;5034594;28;20444;-83
2021/01/19 09:16:30;;;;;;;4.40;3.23;;;0.60;99.90;;;;;;5028470;28;20444;-85
2021/01/19 09:18:59;;;;;;;3.27;2.10;;;1.20;99.90;;;;;;5024846;28;20499;-84
2021/01/19 09:21:26;;;;;;;3.43;2.40;;;1.30;99.90;;;;;;5013881;28;20468;-84
2021/01/19 09:23:54;;;;;;;6.40;3.10;;;1.20;99.90;;;;;;5018575;28;20451;-84
2021/01/19 09:26:20;;;;;;;5.80;3.90;;;1.50;99.90;;;;;;5034310;28;20857;-83
2021/01/19 09:28:47;;;;;;;2.40;1.50;;;1.80;99.90;;;;;;5036596;28;20455;-83
2021/01/19 09:31:16;;;;;;;1.07;0.90;;;1.30;99.90;;;;;;5034639;28;20451;-82
2021/01/19 09:33:43;;;;;;;3.03;1.83;;;1.20;99.90;;;;;;5023451;28;20453;-85
2021/01/19 09:36:12;;;;;;;4.43;2.47;;;1.10;99.90;;;;;;5031796;28;20466;-85
2021/01/19 09:38:39;;;;;;;4.93;2.90;;;1.10;99.90;;;;;;5033111;28;20945;-87
2021/01/19 09:41:07;;;;;;;4.23;2.43;;;1.60;99.90;;;;;;5031182;28;20447;-84
2021/01/19 09:43:34;;;;;;;22.93;1.93;;;1.30;99.90;;;;;;5016589;28;20444;-88
2021/01/19 09:46:02;;;;;;;0.70;0.70;;;1.00;99.90;;;;;;5018851;28;20466;-83
2021/01/19 09:48:31;;;;;;;2.60;2.27;;;1.00;99.90;;;;;;5034437;28;20448;-84
2021/01/19 09:51:01;;;;;;;2.23;1.67;;;1.10;99.90;;;;;;5034297;28;20942;-85
2021/01/19 09:53:31;;;;;;;4.87;1.73;;;1.30;99.90;;;;;;5033169;28;20450;-86
2021/01/19 09:55:58;;;;;;;1.80;1.50;;;1.20;99.90;;;;;;5033095;28;20447;-86
2021/01/19 09:58:26;;;;;;;2.53;1.80;;;1.30;99.90;;;;;;5034477;28;20477;-85
2021/01/19 10:00:53;;;;;;;3.97;2.00;;;1.50;99.90;;;;;;5029138;28;20499;-85
2021/01/19 10:03:21;;;;;;;1.70;1.30;;;1.00;99.90;;;;;;5025742;28;20444;-85
2021/01/19 10:05:59;;;;;;;3.33;1.57;;;0.90;99.90;;;;;;5034367;28;20454;-85
2021/01/19 10:08:25;;;;;;;4.63;2.37;;;2.00;99.90;;;;;;5034500;28;20451;-85
2021/01/19 10:10:53;;;;;;;2.93;2.13;;;1.50;99.90;;;;;;5029085;28;20472;-83
2021/01/19 10:13:25;;;;;;;1.60;1.47;;;1.40;99.90;;;;;;5031006;28;20462;-88
2021/01/19 10:16:03;;;;;;;4.40;2.93;;;1.50;99.90;;;;;;5028743;28;20514;-84
2021/01/19 10:18:30;;;;;;;3.20;1.63;;;;;;;;;;5013544;28;20452;-83
2021/01/19 10:20:56;;;;;;;2.07;1.63;;;1.20;99.90;;;;;;5013667;28;20557;-83
2021/01/19 10:23:27;;;;;;;2.20;1.50;;;1.40;99.90;;;;;;5012560;28;20451;-86
2021/01/19 10:26:06;;;;;;;2.80;1.77;;;2.00;99.90;;;;;;5014640;28;20447;-84
2021/01/19 10:28:39;;;;;;;4.17;2.10;;;1.30;99.90;;;;;;5023032;28;20454;-86
2021/01/19 10:31:20;;;;;;;3.60;2.20;;;1.30;99.90;;;;;;5033282;28;20783;-84
2021/01/19 10:34:01;;;;;;;7.93;3.10;;;1.50;99.90;;;;;;5033469;28;20455;-86
2021/01/19 10:36:29;;;;;;;2.60;1.90;;;1.40;99.90;;;;;;5020902;28;20519;-84
2021/01/19 10:39:03;;;;;;;1.73;1.40;;;1.50;99.90;;;;;;5013416;28;20488;-86
2021/01/19 10:41:31;;;;;;;5.20;2.20;;;1.60;99.90;;;;;;5033191;28;20469;-84
2021/01/19 10:43:58;;;;;;;2.60;1.63;;;;;;;;;;5015252;28;20460;-86
2021/01/19 10:46:26;;;;;;;3.40;1.50;;;2.10;99.90;;;;;;5013302;28;20444;-88
2021/01/19 10:49:06;;;;;;;9.43;4.17;;;1.80;99.90;;;;;;5012785;28;20444;-83
2021/01/19 10:51:34;;;;;;;0.93;0.77;;;1.80;99.90;;;;;;5011693;28;20448;-86
2021/01/19 10:54:19;;;;;;;2.50;1.50;;;0.90;99.90;;;;;;5027151;28;20450;-84
2021/01/19 10:56:58;;;;;;;2.97;2.00;;;1.70;99.90;;;;;;5024251;28;20484;-85
2021/01/19 10:59:25;;;;;;;1.60;1.17;;;1.80;99.90;;;;;;5013481;28;21070;-89
2021/01/19 11:01:51;;;;;;;4.80;2.27;;;1.60;99.90;;;;;;5030592;28;20454;-85
2021/01/19 11:04:17;;;;;;;2.90;2.60;;;1.70;99.90;;;;;;5029052;28;20452;-84
2021/01/19 11:06:43;;;;;;;3.20;2.20;;;1.80;99.90;;;;;;5028239;28;20468;-85
2021/01/19 11:09:09;;;;;;;5.43;1.43;;;2.10;99.90;;;;;;5032243;28;20459;-83
2021/01/19 11:11:36;;;;;;;4.00;1.43;;;;;;;;;;5032305;28;20447;-84
2021/01/19 11:14:05;;;;;;;1.17;1.07;;;2.10;99.90;;;;;;5023221;28;20467;-87
2021/01/19 11:16:32;;;;;;;8.67;2.27;;;1.90;99.90;;;;;;5012749;28;20462;-84
2021/01/19 11:18:59;;;;;;;2.30;1.80;;;2.00;99.90;;;;;;5012654;28;20491;-85
2021/01/19 11:21:26;;;;;;;6.57;2.60;;;;;;;;;;5011110;28;21009;-85
2021/01/19 11:23:53;;;;;;;3.50;2.50;;;2.30;99.90;;;;;;5011320;28;20488;-86
2021/01/19 11:26:19;;;;;;;3.07;1.53;;;;;;;;;;5025386;28;20504;-87
2021/01/19 11:28:46;;;;;;;1.17;1.00;;;2.00;99.90;;;;;;5029130;28;20854;-86
2021/01/19 11:31:18;;;;;;;3.60;2.60;;;2.30;99.90;;;;;;5012151;28;20479;-83
2021/01/19 11:33:44;;;;;;;2.70;2.17;;;;;;;;;;5012279;28;20444;-84
2021/01/19 11:36:17;;;;;;;3.20;2.20;;;2.40;99.90;;;;;;5011562;28;20455;-82
2021/01/19 11:38:44;;;;;;;1.77;1.27;;;2.70;99.90;;;;;;5012443;28;20456;-81
2021/01/19 11:41:14;;;;;;;3.17;1.87;;;2.70;99.90;;;;;;5017260;28;20444;-84
2021/01/19 11:43:41;;;;;;;2.50;1.83;;;;;;;;;;5019601;28;20928;-86
2021/01/19 11:46:07;;;;;;;2.47;1.73;;;;;;;;;;5011893;28;20448;-86
2021/01/19 11:48:34;;;;;;;2.50;2.10;;;2.90;99.90;;;;;;5016364;28;20448;-86
2021/01/19 11:51:00;;;;;;;2.20;1.83;;;2.30;99.90;;;;;;5031919;28;20820;-84
2021/01/19 11:53:27;;;;;;;2.03;1.40;;;2.70;99.90;;;;;;5030770;28;20865;-85
2021/01/19 11:55:54;;;;;;;6.07;2.10;;;;;;;;;;5031794;28;20443;-86
2021/01/19 11:58:21;;;;;;;1.03;0.90;;;2.80;99.90;;;;;;5023571;28;20530;-84
2021/01/19 12:00:48;;;;;;;1.83;1.40;;;2.80;99.90;;;;;;5012783;28;20531;-85
2021/01/19 12:03:18;;;;;;;3.50;2.33;;;2.90;99.90;;;;;;5025312;28;20820;-85
2021/01/19 12:05:45;;;;;;;2.43;1.90;;;3.00;99.90;;;;;;5035550;28;20997;-84
2021/01/19 12:08:12;;;;;;;1.73;1.57;;;3.00;99.90;;;;;;5034520;28;20454;-86
2021/01/19 12:10:38;;;;;;;6.73;2.83;;;;;;;;;;5035524;28;20958;-84
2021/01/19 12:13:07;;;;;;;2.30;1.67;;;;;;;;;;5034181;28;20447;-85
2021/01/19 12:15:34;;;;;;;3.30;2.27;;;2.80;99.90;;;;;;5018738;28;20479;-84
2021/01/19 12:18:00;;;;;;;5.50;3.03;;;;;;;;;;5022199;28;20439;-86
2021/01/19 12:20:27;;;;;;;3.00;1.40;;;3.30;99.90;;;;;;5035683;28;20536;-89
2021/01/19 12:22:54;;;;;;;4.60;2.03;;;3.10;99.90;;;;;;5034529;28;20471;-82
2021/01/19 12:25:20;;;;;;;1.97;1.30;;;3.00;99.90;;;;;;5038651;28;20447;-83
2021/01/19 12:27:48;;;;;;;2.20;1.83;;;3.10;99.90;;;;;;5036643;28;20793;-83
2021/01/19 12:30:15;;;;;;;4.20;2.40;;;3.00;99.90;;;;;;5035483;28;20447;-84
2021/01/19 12:32:41;;;;;;;2.27;1.60;;;3.10;99.90;;;;;;5035261;28;20458;-83
2021/01/19 12:35:09;;;;;;;2.23;1.40;;;3.10;99.90;;;;;;5035322;28;20455;-83
2021/01/19 12:37:35;;;;;;;2.70;1.57;;;3.10;99.90;;;;;;5033793;28;21140;-83
2021/01/19 12:40:04;;;;;;;1.83;1.30;;;3.20;99.90;;;;;;5035239;28;20490;-85
2021/01/19 12:42:30;;;;;;;4.97;1.90;;;3.00;99.90;;;;;;5035216;28;20455;-83
2021/01/19 12:44:56;;;;;;;1.20;1.10;;;3.30;99.90;;;;;;5035361;28;20447;-85
2021/01/19 12:47:23;;;;;;;2.07;1.30;;;;;;;;;;5035267;28;20456;-91
2021/01/19 12:49:50;;;;;;;4.07;2.43;;;;;;;;;;5036211;28;20820;-91
2021/01/19 12:52:17;;;;;;;2.40;1.83;;;3.20;99.90;;;;;;5034077;28;20455;-83
2021/01/19 12:54:43;;;;;;;4.43;1.73;;;3.40;99.90;;;;;;5035062;28;20942;-85
2021/01/19 12:57:13;;;;;;;1.83;1.37;;;3.30;99.90;;;;;;5034835;28;20529;-83
2021/01/19 12:59:40;;;;;;;8.60;1.67;;;2.90;99.90;;;;;;5034962;28;20479;-83
2021/01/19 13:02:06;;;;;;;2.23;1.43;;;3.10;99.90;;;;;;5034976;28;20455;-83
2021/01/19 13:04:33;;;;;;;1.83;1.03;;;3.40;99.90;;;;;;5034566;28;20458;-82
2021/01/19 13:06:59;;;;;;;4.20;2.00;;;;;;;;;;5033893;28;20781;-86
2021/01/19 13:09:26;;;;;;;1.70;1.13;;;;;;;;;;5034893;28;20483;-85
2021/01/19 13:11:53;;;;;;;2.63;2.00;;;;;;;;;;5034291;28;20454;-82
2021/01/19 13:14:20;;;;;;;2.53;1.40;;;3.50;99.90;;;;;;5034566;28;20510;-80
2021/01/19 13:16:46;;;;;;;2.53;2.20;;;3.60;99.90;;;;;;5034574;28;20470;-82
2021/01/19 13:19:12;;;;;;;1.80;1.03;;;;;;;;;;5034572;28;20483;-83
2021/01/19 13:21:39;;;;;;;1.20;1.00;;;;;;;;;;5033473;28;20456;-81
2021/01/19 13:24:06;;;;;;;1.57;0.87;;;3.70;99.90;;;;;;5034458;28;20463;-80